sensor_id;sensor_type;location;lat;lon;timestamp;pressure;altitude;pressure_sealevel;temperature;humidity
16331;BME280;8275;48.206;16.340;2023-11-19T00:00:24;99742.84;;;10.00;40.48
16331;BME280;8275;48.206;16.340;2023-11-19T00:02:54;99741.31;;;10.04;40.71
16331;BME280;8275;48.206;16.340;2023-11-19T00:05:22;99756.78;;;10.10;40.56
16331;BME280;8275;48.206;16.340;2023-11-19T00:07:51;99744.88;;;10.16;40.50
16331;BME280;8275;48.206;16.340;2023-11-19T00:10:19;99743.34;;;10.20;40.58
16331;BME280;8275;48.206;16.340;2023-11-19T00:12:49;99740.09;;;10.23;40.92
16331;BME280;8275;48.206;16.340;2023-11-19T00:15:18;99743.19;;;10.26;40.33
16331;BME280;8275;48.206;16.340;2023-11-19T00:17:47;99746.03;;;10.31;40.67
16331;BME280;8275;48.206;16.340;2023-11-19T00:20:19;99732.94;;;10.33;40.56
16331;BME280;8275;48.206;16.340;2023-11-19T00:22:49;99730.78;;;10.35;40.39
16331;BME280;8275;48.206;16.340;2023-11-19T00:25:20;99731.63;;;10.36;40.54
16331;BME280;8275;48.206;16.340;2023-11-19T00:27:50;99725.31;;;10.35;40.46
16331;BME280;8275;48.206;16.340;2023-11-19T00:30:21;99729.69;;;10.36;40.47
16331;BME280;8275;48.206;16.340;2023-11-19T00:32:49;99736.00;;;10.37;40.17
16331;BME280;8275;48.206;16.340;2023-11-19T00:35:19;99750.78;;;10.36;40.27
16331;BME280;8275;48.206;16.340;2023-11-19T00:37:48;99735.41;;;10.35;40.22
16331;BME280;8275;48.206;16.340;2023-11-19T00:40:17;99729.59;;;10.31;40.54
16331;BME280;8275;48.206;16.340;2023-11-19T00:42:49;99718.66;;;10.31;40.55
16331;BME280;8275;48.206;16.340;2023-11-19T00:45:17;99718.03;;;10.29;40.22
16331;BME280;8275;48.206;16.340;2023-11-19T00:47:46;99715.56;;;10.28;40.31
16331;BME280;8275;48.206;16.340;2023-11-19T00:50:14;99716.03;;;10.25;40.40
16331;BME280;8275;48.206;16.340;2023-11-19T00:52:44;99709.13;;;10.22;40.24
16331;BME280;8275;48.206;16.340;2023-11-19T00:55:12;99715.97;;;10.20;40.49
16331;BME280;8275;48.206;16.340;2023-11-19T00:57:40;99712.84;;;10.16;40.49
16331;BME280;8275;48.206;16.340;2023-11-19T01:00:10;99704.91;;;10.15;40.53
16331;BME280;8275;48.206;16.340;2023-11-19T01:02:47;99697.75;;;10.14;40.83
16331;BME280;8275;48.206;16.340;2023-11-19T01:05:19;99696.69;;;10.15;40.50
16331;BME280;8275;48.206;16.340;2023-11-19T01:07:51;99696.44;;;10.16;40.50
16331;BME280;8275;48.206;16.340;2023-11-19T01:10:22;99703.31;;;10.19;40.47
16331;BME280;8275;48.206;16.340;2023-11-19T01:12:51;99703.91;;;10.21;40.62
16331;BME280;8275;48.206;16.340;2023-11-19T01:15:20;99703.66;;;10.22;40.72
16331;BME280;8275;48.206;16.340;2023-11-19T01:17:50;99686.16;;;10.23;40.35
16331;BME280;8275;48.206;16.340;2023-11-19T01:20:20;99681.28;;;10.25;40.83
16331;BME280;8275;48.206;16.340;2023-11-19T01:22:48;99673.06;;;10.25;40.57
16331;BME280;8275;48.206;16.340;2023-11-19T01:25:18;99667.00;;;10.23;40.64
16331;BME280;8275;48.206;16.340;2023-11-19T01:27:47;99667.84;;;10.24;40.78
16331;BME280;8275;48.206;16.340;2023-11-19T01:30:17;99663.22;;;10.24;40.69
16331;BME280;8275;48.206;16.340;2023-11-19T01:32:47;99662.69;;;10.27;40.75
16331;BME280;8275;48.206;16.340;2023-11-19T01:35:15;99656.75;;;10.30;40.55
16331;BME280;8275;48.206;16.340;2023-11-19T01:37:43;99662.78;;;10.32;40.82
16331;BME280;8275;48.206;16.340;2023-11-19T01:40:12;99662.78;;;10.32;40.60
16331;BME280;8275;48.206;16.340;2023-11-19T01:42:42;99660.06;;;10.32;40.79
16331;BME280;8275;48.206;16.340;2023-11-19T01:45:22;99658.75;;;10.35;40.52
16331;BME280;8275;48.206;16.340;2023-11-19T01:47:55;99650.28;;;10.36;40.38
16331;BME280;8275;48.206;16.340;2023-11-19T01:50:24;99653.00;;;10.36;40.80
16331;BME280;8275;48.206;16.340;2023-11-19T01:52:54;99641.25;;;10.36;40.82
16331;BME280;8275;48.206;16.340;2023-11-19T01:55:26;99638.50;;;10.36;40.75
16331;BME280;8275;48.206;16.340;2023-11-19T01:58:00;99628.63;;;10.35;40.47
16331;BME280;8275;48.206;16.340;2023-11-19T02:00:31;99634.09;;;10.35;40.82
16331;BME280;8275;48.206;16.340;2023-11-19T02:03:01;99629.19;;;10.37;40.85
16331;BME280;8275;48.206;16.340;2023-11-19T02:05:31;99615.03;;;10.40;40.98
16331;BME280;8275;48.206;16.340;2023-11-19T02:08:00;99615.34;;;10.43;40.72
16331;BME280;8275;48.206;16.340;2023-11-19T02:10:29;99611.53;;;10.44;40.51
16331;BME280;8275;48.206;16.340;2023-11-19T02:13:01;99615.94;;;10.45;40.82
16331;BME280;8275;48.206;16.340;2023-11-19T02:15:33;99604.75;;;10.47;40.85
16331;BME280;8275;48.206;16.340;2023-11-19T02:18:21;99592.69;;;10.48;40.71
16331;BME280;8275;48.206;16.340;2023-11-19T02:20:50;99593.88;;;10.52;41.11
16331;BME280;8275;48.206;16.340;2023-11-19T02:23:20;99575.28;;;10.54;40.93
16331;BME280;8275;48.206;16.340;2023-11-19T02:26:00;99564.31;;;10.54;41.11
16331;BME280;8275;48.206;16.340;2023-11-19T02:28:31;99559.66;;;10.54;40.74
16331;BME280;8275;48.206;16.340;2023-11-19T02:31:00;99561.59;;;10.54;41.09
16331;BME280;8275;48.206;16.340;2023-11-19T02:33:29;99557.75;;;10.55;40.94
16331;BME280;8275;48.206;16.340;2023-11-19T02:35:58;99547.63;;;10.55;41.41
16331;BME280;8275;48.206;16.340;2023-11-19T02:38:26;99558.59;;;10.55;41.09
16331;BME280;8275;48.206;16.340;2023-11-19T02:40:54;99566.22;;;10.53;41.26
16331;BME280;8275;48.206;16.340;2023-11-19T02:43:23;99557.44;;;10.51;41.36
16331;BME280;8275;48.206;16.340;2023-11-19T02:45:53;99560.66;;;10.48;41.54
16331;BME280;8275;48.206;16.340;2023-11-19T02:48:22;99559.25;;;10.46;41.67
16331;BME280;8275;48.206;16.340;2023-11-19T02:50:51;99551.19;;;10.39;42.24
16331;BME280;8275;48.206;16.340;2023-11-19T02:53:20;99556.59;;;10.34;42.46
16331;BME280;8275;48.206;16.340;2023-11-19T02:55:49;99548.06;;;10.31;42.58
16331;BME280;8275;48.206;16.340;2023-11-19T02:58:18;99541.63;;;10.25;42.88
16331;BME280;8275;48.206;16.340;2023-11-19T03:00:53;99533.59;;;10.19;43.05
16331;BME280;8275;48.206;16.340;2023-11-19T03:03:25;99537.31;;;10.13;43.03
16331;BME280;8275;48.206;16.340;2023-11-19T03:05:56;99532.78;;;10.07;43.20
16331;BME280;8275;48.206;16.340;2023-11-19T03:08:24;99525.56;;;10.01;43.38
16331;BME280;8275;48.206;16.340;2023-11-19T03:10:53;99520.75;;;9.91;43.56
16331;BME280;8275;48.206;16.340;2023-11-19T03:13:21;99522.53;;;9.85;44.28
16331;BME280;8275;48.206;16.340;2023-11-19T03:15:50;99517.00;;;9.80;43.98
16331;BME280;8275;48.206;16.340;2023-11-19T03:18:20;99527.34;;;9.78;44.61
16331;BME280;8275;48.206;16.340;2023-11-19T03:20:48;99508.44;;;9.77;44.42
16331;BME280;8275;48.206;16.340;2023-11-19T03:23:17;99490.38;;;9.76;44.42
16331;BME280;8275;48.206;16.340;2023-11-19T03:25:46;99489.53;;;9.75;44.58
16331;BME280;8275;48.206;16.340;2023-11-19T03:28:14;99480.75;;;9.73;44.87
16331;BME280;8275;48.206;16.340;2023-11-19T03:30:43;99480.19;;;9.71;44.70
16331;BME280;8275;48.206;16.340;2023-11-19T03:33:11;99486.13;;;9.68;44.81
16331;BME280;8275;48.206;16.340;2023-11-19T03:35:41;99481.97;;;9.66;45.04
16331;BME280;8275;48.206;16.340;2023-11-19T03:38:09;99476.97;;;9.63;45.04
16331;BME280;8275;48.206;16.340;2023-11-19T03:40:38;99469.03;;;9.61;45.39
16331;BME280;8275;48.206;16.340;2023-11-19T03:43:06;99468.78;;;9.63;45.34
16331;BME280;8275;48.206;16.340;2023-11-19T03:45:36;99461.66;;;9.62;45.53
16331;BME280;8275;48.206;16.340;2023-11-19T03:48:05;99458.09;;;9.61;45.79
16331;BME280;8275;48.206;16.340;2023-11-19T03:50:33;99454.53;;;9.61;45.65
16331;BME280;8275;48.206;16.340;2023-11-19T03:53:03;99444.16;;;9.63;45.60
16331;BME280;8275;48.206;16.340;2023-11-19T03:55:32;99445.84;;;9.64;45.95
16331;BME280;8275;48.206;16.340;2023-11-19T03:58:00;99439.53;;;9.63;45.92
16331;BME280;8275;48.206;16.340;2023-11-19T04:00:29;99444.16;;;9.63;46.10
16331;BME280;8275;48.206;16.340;2023-11-19T04:02:57;99434.91;;;9.64;46.07
16331;BME280;8275;48.206;16.340;2023-11-19T04:05:26;99430.00;;;9.66;46.25
16331;BME280;8275;48.206;16.340;2023-11-19T04:07:54;99415.75;;;9.64;46.55
16331;BME280;8275;48.206;16.340;2023-11-19T04:10:24;99425.03;;;9.63;46.41
16331;BME280;8275;48.206;16.340;2023-11-19T04:12:54;99419.81;;;9.61;46.70
16331;BME280;8275;48.206;16.340;2023-11-19T04:15:23;99409.94;;;9.60;46.86
16331;BME280;8275;48.206;16.340;2023-11-19T04:17:52;99401.50;;;9.62;46.78
16331;BME280;8275;48.206;16.340;2023-11-19T04:20:20;99400.66;;;9.61;47.02
16331;BME280;8275;48.206;16.340;2023-11-19T04:22:50;99396.25;;;9.60;46.99
16331;BME280;8275;48.206;16.340;2023-11-19T04:25:19;99380.69;;;9.61;47.15
16331;BME280;8275;48.206;16.340;2023-11-19T04:27:49;99397.34;;;9.59;47.10
16331;BME280;8275;48.206;16.340;2023-11-19T04:30:18;99397.34;;;9.59;47.35
16331;BME280;8275;48.206;16.340;2023-11-19T04:32:46;99395.44;;;9.60;47.46
16331;BME280;8275;48.206;16.340;2023-11-19T04:35:15;99399.81;;;9.61;47.31
16331;BME280;8275;48.206;16.340;2023-11-19T04:37:44;99391.13;;;9.64;47.35
16331;BME280;8275;48.206;16.340;2023-11-19T04:40:14;99375.78;;;9.63;47.29
16331;BME280;8275;48.206;16.340;2023-11-19T04:42:42;99396.59;;;9.64;47.63
16331;BME280;8275;48.206;16.340;2023-11-19T04:45:12;99388.13;;;9.65;47.33
16331;BME280;8275;48.206;16.340;2023-11-19T04:47:40;99382.44;;;9.67;47.68
16331;BME280;8275;48.206;16.340;2023-11-19T04:50:09;99385.75;;;9.69;47.64
16331;BME280;8275;48.206;16.340;2023-11-19T04:52:38;99384.91;;;9.68;47.72
16331;BME280;8275;48.206;16.340;2023-11-19T04:55:09;99366.84;;;9.67;47.82
16331;BME280;8275;48.206;16.340;2023-11-19T04:57:39;99368.78;;;9.67;47.52
16331;BME280;8275;48.206;16.340;2023-11-19T05:00:10;99366.53;;;9.64;47.65
16331;BME280;8275;48.206;16.340;2023-11-19T05:02:43;99353.69;;;9.64;47.98
16331;BME280;8275;48.206;16.340;2023-11-19T05:05:12;99342.97;;;9.63;47.98
16331;BME280;8275;48.206;16.340;2023-11-19T05:07:40;99340.22;;;9.63;48.01
16331;BME280;8275;48.206;16.340;2023-11-19T05:10:09;99339.41;;;9.62;47.85
16331;BME280;8275;48.206;16.340;2023-11-19T05:12:38;99341.31;;;9.62;48.11
16331;BME280;8275;48.206;16.340;2023-11-19T05:15:09;99342.97;;;9.63;48.48
16331;BME280;8275;48.206;16.340;2023-11-19T05:17:39;99350.69;;;9.66;48.19
16331;BME280;8275;48.206;16.340;2023-11-19T05:20:09;99354.84;;;9.68;48.20
16331;BME280;8275;48.206;16.340;2023-11-19T05:22:41;99335.19;;;9.71;48.20
16331;BME280;8275;48.206;16.340;2023-11-19T05:25:09;99329.22;;;9.74;47.90
16331;BME280;8275;48.206;16.340;2023-11-19T05:27:38;99328.16;;;9.75;48.29
16331;BME280;8275;48.206;16.340;2023-11-19T05:30:08;99325.41;;;9.75;48.25
16331;BME280;8275;48.206;16.340;2023-11-19T05:32:38;99326.81;;;9.78;48.45
16331;BME280;8275;48.206;16.340;2023-11-19T05:35:09;99328.47;;;9.79;48.08
16331;BME280;8275;48.206;16.340;2023-11-19T05:37:37;99326.56;;;9.79;48.34
16331;BME280;8275;48.206;16.340;2023-11-19T05:40:07;99312.63;;;9.81;48.31
16331;BME280;8275;48.206;16.340;2023-11-19T05:42:42;99315.88;;;9.78;48.26
16331;BME280;8275;48.206;16.340;2023-11-19T05:45:12;99302.19;;;9.78;48.23
16331;BME280;8275;48.206;16.340;2023-11-19T05:47:41;99306.56;;;9.79;48.67
16331;BME280;8275;48.206;16.340;2023-11-19T05:50:11;99303.00;;;9.78;48.51
16331;BME280;8275;48.206;16.340;2023-11-19T05:52:40;99299.19;;;9.79;48.65
16331;BME280;8275;48.206;16.340;2023-11-19T05:55:08;99291.56;;;9.81;48.61
16331;BME280;8275;48.206;16.340;2023-11-19T05:57:38;99285.25;;;9.81;48.81
16331;BME280;8275;48.206;16.340;2023-11-19T06:00:11;99291.81;;;9.80;48.88
16331;BME280;8275;48.206;16.340;2023-11-19T06:02:43;99289.66;;;9.82;49.20
16331;BME280;8275;48.206;16.340;2023-11-19T06:05:12;99293.81;;;9.84;48.88
16331;BME280;8275;48.206;16.340;2023-11-19T06:07:41;99294.13;;;9.88;48.74
16331;BME280;8275;48.206;16.340;2023-11-19T06:10:10;99302.31;;;9.88;49.00
16331;BME280;8275;48.206;16.340;2023-11-19T06:12:45;99290.59;;;9.87;49.16
16331;BME280;8275;48.206;16.340;2023-11-19T06:15:14;99297.13;;;9.86;49.24
16331;BME280;8275;48.206;16.340;2023-11-19T06:17:43;99288.91;;;9.86;49.24
16331;BME280;8275;48.206;16.340;2023-11-19T06:20:13;99295.44;;;9.85;49.47
16331;BME280;8275;48.206;16.340;2023-11-19T06:22:41;99287.25;;;9.85;49.16
16331;BME280;8275;48.206;16.340;2023-11-19T06:25:11;99295.44;;;9.85;49.54
16331;BME280;8275;48.206;16.340;2023-11-19T06:27:42;99301.75;;;9.86;49.24
16331;BME280;8275;48.206;16.340;2023-11-19T06:30:11;99292.97;;;9.84;49.15
16331;BME280;8275;48.206;16.340;2023-11-19T06:32:40;99292.13;;;9.83;49.47
16331;BME280;8275;48.206;16.340;2023-11-19T06:35:08;99279.28;;;9.84;49.56
16331;BME280;8275;48.206;16.340;2023-11-19T06:37:40;99279.28;;;9.84;49.77
16331;BME280;8275;48.206;16.340;2023-11-19T06:40:10;99279.56;;;9.82;49.64
16331;BME280;8275;48.206;16.340;2023-11-19T06:42:39;99288.59;;;9.83;49.65
16331;BME280;8275;48.206;16.340;2023-11-19T06:45:08;99292.13;;;9.83;49.83
16331;BME280;8275;48.206;16.340;2023-11-19T06:47:36;99271.59;;;9.81;50.10
16331;BME280;8275;48.206;16.340;2023-11-19T06:50:07;99279.56;;;9.82;49.93
16331;BME280;8275;48.206;16.340;2023-11-19T06:52:36;99278.72;;;9.82;50.07
16331;BME280;8275;48.206;16.340;2023-11-19T06:55:08;99274.56;;;9.79;50.25
16331;BME280;8275;48.206;16.340;2023-11-19T06:57:37;99272.09;;;9.78;50.33
16331;BME280;8275;48.206;16.340;2023-11-19T07:00:07;99258.66;;;9.76;50.81
16331;BME280;8275;48.206;16.340;2023-11-19T07:02:36;99257.25;;;9.74;50.65
16331;BME280;8275;48.206;16.340;2023-11-19T07:05:05;99258.09;;;9.74;51.04
16331;BME280;8275;48.206;16.340;2023-11-19T07:07:35;99257.03;;;9.75;51.13
16331;BME280;8275;48.206;16.340;2023-11-19T07:10:06;99249.66;;;9.76;51.39
16331;BME280;8275;48.206;16.340;2023-11-19T07:12:37;99241.19;;;9.77;51.28
16331;BME280;8275;48.206;16.340;2023-11-19T07:15:06;99240.91;;;9.79;51.38
16331;BME280;8275;48.206;16.340;2023-11-19T07:17:35;99237.09;;;9.80;51.79
16331;BME280;8275;48.206;16.340;2023-11-19T07:20:05;99231.38;;;9.81;51.60
16331;BME280;8275;48.206;16.340;2023-11-19T07:22:34;99236.63;;;9.83;51.61
16331;BME280;8275;48.206;16.340;2023-11-19T07:25:02;99222.94;;;9.83;52.04
16331;BME280;8275;48.206;16.340;2023-11-19T07:27:32;99221.00;;;9.83;52.29
16331;BME280;8275;48.206;16.340;2023-11-19T07:30:00;99233.88;;;9.83;52.23
16331;BME280;8275;48.206;16.340;2023-11-19T07:32:29;99220.69;;;9.80;52.25
16331;BME280;8275;48.206;16.340;2023-11-19T07:34:57;99206.44;;;9.78;51.90
16331;BME280;8275;48.206;16.340;2023-11-19T07:37:25;99210.50;;;9.75;52.10
16331;BME280;8275;48.206;16.340;2023-11-19T07:39:54;99201.72;;;9.73;52.42
16331;BME280;8275;48.206;16.340;2023-11-19T07:42:22;99198.16;;;9.73;52.17
16331;BME280;8275;48.206;16.340;2023-11-19T07:44:52;99202.81;;;9.72;52.28
16331;BME280;8275;48.206;16.340;2023-11-19T07:47:22;99211.84;;;9.73;52.27
16331;BME280;8275;48.206;16.340;2023-11-19T07:49:51;99208.00;;;9.74;52.19
16331;BME280;8275;48.206;16.340;2023-11-19T07:52:19;99204.47;;;9.73;52.23
16331;BME280;8275;48.206;16.340;2023-11-19T07:54:48;99206.94;;;9.75;52.48
16331;BME280;8275;48.206;16.340;2023-11-19T07:57:17;99203.94;;;9.76;52.52
16331;BME280;8275;48.206;16.340;2023-11-19T07:59:45;99202.38;;;9.80;52.46
16331;BME280;8275;48.206;16.340;2023-11-19T08:02:15;99195.81;;;9.81;52.59
16331;BME280;8275;48.206;16.340;2023-11-19T08:04:43;99202.94;;;9.82;52.22
16331;BME280;8275;48.206;16.340;2023-11-19T08:07:13;99209.81;;;9.85;52.01
16331;BME280;8275;48.206;16.340;2023-11-19T08:09:41;99204.09;;;9.86;52.49
16331;BME280;8275;48.206;16.340;2023-11-19T08:12:10;99210.97;;;9.89;52.19
16331;BME280;8275;48.206;16.340;2023-11-19T08:14:40;99210.22;;;9.94;52.34
16331;BME280;8275;48.206;16.340;2023-11-19T08:17:08;99199.91;;;10.01;52.36
16331;BME280;8275;48.206;16.340;2023-11-19T08:19:38;99204.69;;;10.10;52.58
16331;BME280;8275;48.206;16.340;2023-11-19T08:22:06;99200.19;;;10.21;52.58
16331;BME280;8275;48.206;16.340;2023-11-19T08:24:36;99202.22;;;10.30;52.10
16331;BME280;8275;48.206;16.340;2023-11-19T08:27:05;99203.91;;;10.36;52.20
16331;BME280;8275;48.206;16.340;2023-11-19T08:29:33;99200.69;;;10.39;52.16
16331;BME280;8275;48.206;16.340;2023-11-19T08:32:03;99184.53;;;10.43;51.99
16331;BME280;8275;48.206;16.340;2023-11-19T08:34:31;99195.31;;;10.49;52.49
16331;BME280;8275;48.206;16.340;2023-11-19T08:37:01;99192.38;;;10.56;52.27
16331;BME280;8275;48.206;16.340;2023-11-19T08:39:29;99197.94;;;10.66;52.28
16331;BME280;8275;48.206;16.340;2023-11-19T08:41:58;99191.16;;;10.74;51.96
16331;BME280;8275;48.206;16.340;2023-11-19T08:44:26;99173.94;;;10.78;51.83
16331;BME280;8275;48.206;16.340;2023-11-19T08:46:54;99177.81;;;10.82;52.19
16331;BME280;8275;48.206;16.340;2023-11-19T08:49:23;99176.78;;;10.88;52.17
16331;BME280;8275;48.206;16.340;2023-11-19T08:51:51;99179.59;;;10.93;52.19
16331;BME280;8275;48.206;16.340;2023-11-19T08:54:21;99177.97;;;10.97;51.76
16331;BME280;8275;48.206;16.340;2023-11-19T08:56:50;99179.09;;;11.01;51.93
16331;BME280;8275;48.206;16.340;2023-11-19T08:59:18;99199.94;;;11.02;51.84
16331;BME280;8275;48.206;16.340;2023-11-19T09:01:47;99203.03;;;11.11;51.44
16331;BME280;8275;48.206;16.340;2023-11-19T09:04:15;99203.69;;;11.23;51.58
16331;BME280;8275;48.206;16.340;2023-11-19T09:06:44;99215.88;;;11.37;51.78
16331;BME280;8275;48.206;16.340;2023-11-19T09:09:12;99210.97;;;11.44;50.91
16331;BME280;8275;48.206;16.340;2023-11-19T09:11:42;99189.59;;;11.46;51.04
16331;BME280;8275;48.206;16.340;2023-11-19T09:14:11;99187.69;;;11.52;51.21
16331;BME280;8275;48.206;16.340;2023-11-19T09:16:39;99176.25;;;11.60;51.34
16331;BME280;8275;48.206;16.340;2023-11-19T09:19:08;99176.59;;;11.68;51.13
16331;BME280;8275;48.206;16.340;2023-11-19T09:21:36;99165.66;;;11.73;51.25
16331;BME280;8275;48.206;16.340;2023-11-19T09:24:06;99151.13;;;11.78;51.16
16331;BME280;8275;48.206;16.340;2023-11-19T09:26:35;99141.81;;;11.84;51.14
16331;BME280;8275;48.206;16.340;2023-11-19T09:29:08;99149.00;;;11.90;50.76
16331;BME280;8275;48.206;16.340;2023-11-19T09:31:38;99133.66;;;11.99;50.92
16331;BME280;8275;48.206;16.340;2023-11-19T09:34:06;99131.50;;;12.06;50.90
16331;BME280;8275;48.206;16.340;2023-11-19T09:36:35;99127.09;;;12.10;50.57
16331;BME280;8275;48.206;16.340;2023-11-19T09:39:03;99125.75;;;12.18;50.65
16331;BME280;8275;48.206;16.340;2023-11-19T09:41:33;99123.03;;;12.28;50.43
16331;BME280;8275;48.206;16.340;2023-11-19T09:44:02;99121.97;;;12.34;50.10
16331;BME280;8275;48.206;16.340;2023-11-19T09:46:31;99115.09;;;12.41;50.22
16331;BME280;8275;48.206;16.340;2023-11-19T09:49:01;99121.97;;;12.49;50.08
16331;BME280;8275;48.206;16.340;2023-11-19T09:51:31;99126.38;;;12.60;50.39
16331;BME280;8275;48.206;16.340;2023-11-19T09:53:59;99116.50;;;12.69;50.06
16331;BME280;8275;48.206;16.340;2023-11-19T09:56:28;99123.38;;;12.72;49.86
16331;BME280;8275;48.206;16.340;2023-11-19T09:58:58;99106.34;;;12.75;49.47
16331;BME280;8275;48.206;16.340;2023-11-19T10:01:27;99104.44;;;12.75;49.51
16331;BME280;8275;48.206;16.340;2023-11-19T10:03:57;99107.72;;;12.77;49.47
16331;BME280;8275;48.206;16.340;2023-11-19T10:06:26;99099.19;;;12.79;49.47
16331;BME280;8275;48.206;16.340;2023-11-19T10:08:55;99092.88;;;12.83;49.37
16331;BME280;8275;48.206;16.340;2023-11-19T10:11:24;99098.63;;;12.92;49.39
16331;BME280;8275;48.206;16.340;2023-11-19T10:13:53;99093.97;;;12.97;49.20
16331;BME280;8275;48.206;16.340;2023-11-19T10:16:29;99095.34;;;13.00;48.90
16331;BME280;8275;48.206;16.340;2023-11-19T10:18:59;99106.88;;;13.02;48.61
16331;BME280;8275;48.206;16.340;2023-11-19T10:21:29;99093.44;;;13.00;48.62
16331;BME280;8275;48.206;16.340;2023-11-19T10:24:00;99096.44;;;12.99;48.74
16331;BME280;8275;48.206;16.340;2023-11-19T10:26:28;99097.00;;;12.96;48.58
16331;BME280;8275;48.206;16.340;2023-11-19T10:28:57;99082.97;;;12.92;48.57
16331;BME280;8275;48.206;16.340;2023-11-19T10:31:25;99087.63;;;12.92;48.51
16331;BME280;8275;48.206;16.340;2023-11-19T10:33:54;99082.44;;;12.90;48.60
16331;BME280;8275;48.206;16.340;2023-11-19T10:36:38;99089.03;;;12.89;48.74
16331;BME280;8275;48.206;16.340;2023-11-19T10:39:08;99067.59;;;12.91;48.58
16331;BME280;8275;48.206;16.340;2023-11-19T10:41:37;99055.22;;;12.89;48.52
16331;BME280;8275;48.206;16.340;2023-11-19T10:44:05;99046.44;;;12.87;48.68
16331;BME280;8275;48.206;16.340;2023-11-19T10:46:38;99055.47;;;12.87;48.80
16331;BME280;8275;48.206;16.340;2023-11-19T10:49:07;99049.97;;;12.92;49.00
16331;BME280;8275;48.206;16.340;2023-11-19T10:51:43;99043.38;;;12.98;48.72
16331;BME280;8275;48.206;16.340;2023-11-19T10:54:15;99031.56;;;13.08;48.74
16331;BME280;8275;48.206;16.340;2023-11-19T10:56:55;99026.88;;;13.13;48.81
16331;BME280;8275;48.206;16.340;2023-11-19T10:59:31;99035.94;;;13.19;48.78
16331;BME280;8275;48.206;16.340;2023-11-19T11:02:05;99035.66;;;13.25;48.60
16331;BME280;8275;48.206;16.340;2023-11-19T11:04:40;99019.16;;;13.30;48.53
16331;BME280;8275;48.206;16.340;2023-11-19T11:07:10;99018.03;;;13.31;48.47
16331;BME280;8275;48.206;16.340;2023-11-19T11:09:41;99014.19;;;13.27;48.39
16331;BME280;8275;48.206;16.340;2023-11-19T11:12:10;99012.81;;;13.25;48.54
16331;BME280;8275;48.206;16.340;2023-11-19T11:14:40;99007.31;;;13.20;48.72
16331;BME280;8275;48.206;16.340;2023-11-19T11:17:12;99004.28;;;13.26;49.08
16331;BME280;8275;48.206;16.340;2023-11-19T11:19:42;99004.25;;;13.31;49.22
16331;BME280;8275;48.206;16.340;2023-11-19T11:22:14;99006.72;;;13.33;49.42
16331;BME280;8275;48.206;16.340;2023-11-19T11:25:23;99000.44;;;13.32;49.41
16331;BME280;8275;48.206;16.340;2023-11-19T11:28:18;98991.63;;;13.30;49.37
16331;BME280;8275;48.206;16.340;2023-11-19T11:31:07;98999.59;;;13.27;49.52
16331;BME280;8275;48.206;16.340;2023-11-19T11:33:59;98990.25;;;13.28;49.27
16331;BME280;8275;48.206;16.340;2023-11-19T11:36:44;98996.31;;;13.30;49.25
16331;BME280;8275;48.206;16.340;2023-11-19T11:39:16;99004.00;;;13.28;49.33
16331;BME280;8275;48.206;16.340;2023-11-19T11:41:46;99003.19;;;13.27;49.27
16331;BME280;8275;48.206;16.340;2023-11-19T11:44:14;99015.84;;;13.23;49.34
16331;BME280;8275;48.206;16.340;2023-11-19T11:46:54;99009.53;;;13.18;49.32
16331;BME280;8275;48.206;16.340;2023-11-19T11:49:28;99010.91;;;13.10;49.49
16331;BME280;8275;48.206;16.340;2023-11-19T11:52:00;99011.19;;;13.04;49.65
16331;BME280;8275;48.206;16.340;2023-11-19T11:54:32;99003.78;;;12.94;49.88
16331;BME280;8275;48.206;16.340;2023-11-19T11:57:06;99009.56;;;12.88;50.16
16331;BME280;8275;48.206;16.340;2023-11-19T11:59:48;99007.94;;;12.82;50.22
16331;BME280;8275;48.206;16.340;2023-11-19T12:02:19;99005.44;;;12.80;50.35
16331;BME280;8275;48.206;16.340;2023-11-19T12:04:49;99010.69;;;12.82;50.37
16331;BME280;8275;48.206;16.340;2023-11-19T12:07:20;99006.28;;;12.86;50.52
16331;BME280;8275;48.206;16.340;2023-11-19T12:09:53;99001.59;;;12.91;50.77
16331;BME280;8275;48.206;16.340;2023-11-19T12:12:26;99007.66;;;12.98;50.98
16331;BME280;8275;48.206;16.340;2023-11-19T12:15:07;98999.34;;;13.03;50.93
16331;BME280;8275;48.206;16.340;2023-11-19T12:17:47;98995.25;;;13.06;50.79
16331;BME280;8275;48.206;16.340;2023-11-19T12:20:20;98993.06;;;13.08;50.86
16331;BME280;8275;48.206;16.340;2023-11-19T12:22:53;98988.91;;;13.10;50.52
16331;BME280;8275;48.206;16.340;2023-11-19T12:25:24;98988.66;;;13.12;50.87
16331;BME280;8275;48.206;16.340;2023-11-19T12:27:53;98977.38;;;13.18;50.94
16331;BME280;8275;48.206;16.340;2023-11-19T12:30:23;98973.50;;;13.19;50.77
16331;BME280;8275;48.206;16.340;2023-11-19T12:32:53;98969.34;;;13.22;50.78
16331;BME280;8275;48.206;16.340;2023-11-19T12:35:22;98975.97;;;13.21;50.46
16331;BME280;8275;48.206;16.340;2023-11-19T12:37:52;98970.75;;;13.19;50.45
16331;BME280;8275;48.206;16.340;2023-11-19T12:40:24;98970.78;;;13.14;50.62
16331;BME280;8275;48.206;16.340;2023-11-19T12:42:53;98977.13;;;13.10;50.60
16331;BME280;8275;48.206;16.340;2023-11-19T12:45:23;98967.19;;;13.04;51.05
16331;BME280;8275;48.206;16.340;2023-11-19T12:48:05;98954.03;;;12.96;51.51
16331;BME280;8275;48.206;16.340;2023-11-19T12:50:51;98958.94;;;12.99;51.63
16331;BME280;8275;48.206;16.340;2023-11-19T12:53:21;98952.06;;;13.01;51.67
16331;BME280;8275;48.206;16.340;2023-11-19T12:55:52;98968.84;;;13.00;51.56
16331;BME280;8275;48.206;16.340;2023-11-19T12:58:29;98967.50;;;12.97;51.51
16331;BME280;8275;48.206;16.340;2023-11-19T13:01:02;98969.69;;;12.95;51.38
16331;BME280;8275;48.206;16.340;2023-11-19T13:03:34;98963.06;;;12.96;51.55
16331;BME280;8275;48.206;16.340;2023-11-19T13:06:04;98964.19;;;12.95;51.74
16331;BME280;8275;48.206;16.340;2023-11-19T13:08:39;98956.25;;;12.94;51.69
16331;BME280;8275;48.206;16.340;2023-11-19T13:11:10;98954.03;;;12.91;51.85
16331;BME280;8275;48.206;16.340;2023-11-19T13:13:55;98940.31;;;12.86;52.34
16331;BME280;8275;48.206;16.340;2023-11-19T13:16:25;98948.84;;;12.84;52.10
16331;BME280;8275;48.206;16.340;2023-11-19T13:18:55;98942.81;;;12.82;52.16
16331;BME280;8275;48.206;16.340;2023-11-19T13:21:24;98940.59;;;12.84;52.30